createdAt,value
2023-04-07T00:01:09.344Z,-0.28
2023-04-07T00:06:15.075Z,-0.27
2023-04-07T00:11:22.663Z,-0.28
2023-04-07T00:16:29.923Z,-0.29
2023-04-07T00:21:35.292Z,-0.25
2023-04-07T00:26:42.399Z,-0.21
2023-04-07T00:31:49.896Z,-0.18
2023-04-07T00:36:55.638Z,-0.19
2023-04-07T00:42:04.873Z,-0.18
2023-04-07T00:47:12.355Z,-0.18
2023-04-07T00:52:18.063Z,-0.18
2023-04-07T00:57:26.228Z,-0.15
2023-04-07T01:02:39.254Z,-0.11
2023-04-07T01:07:58.226Z,-0.08
2023-04-07T01:13:14.882Z,-0.06
2023-04-07T01:18:27.990Z,-0.07
2023-04-07T01:23:50.834Z,-0.05
2023-04-07T01:29:16.230Z,-0.05
2023-04-07T01:34:25.753Z,-0.04
2023-04-07T01:39:33.954Z,-0.03
2023-04-07T01:44:42.237Z,-0.06
2023-04-07T01:49:51.176Z,-0.11
2023-04-07T01:54:58.563Z,-0.16
2023-04-07T02:00:06.677Z,-0.20
2023-04-07T02:05:18.839Z,-0.20
2023-04-07T02:10:29.795Z,-0.14
2023-04-07T02:23:51.151Z,-0.09
2023-04-07T02:28:58.640Z,-0.13
2023-04-07T02:34:04.407Z,-0.14
2023-04-07T02:39:12.404Z,-0.14
2023-04-07T02:44:19.775Z,-0.14
2023-04-07T02:59:21.685Z,-0.06
2023-04-07T03:04:28.134Z,-0.07
2023-04-07T03:09:35.730Z,-0.06
2023-04-07T03:14:42.938Z,-0.05
2023-04-07T03:19:48.690Z,-0.04
2023-04-07T03:24:55.834Z,-0.07
2023-04-07T03:30:03.165Z,-0.09
2023-04-07T03:35:12.393Z,-0.09
2023-04-07T03:40:20.146Z,-0.06
2023-04-07T03:45:27.578Z,-0.01
2023-04-07T03:50:34.771Z,0.03
2023-04-07T03:55:42.164Z,0.03
2023-04-07T04:00:47.673Z,0.01
2023-04-07T04:05:54.992Z,0.00
2023-04-07T04:11:02.297Z,0.05
2023-04-07T04:16:09.176Z,0.11
2023-04-07T04:21:16.666Z,0.12
2023-04-07T04:26:26.336Z,0.13
2023-04-07T04:31:34.115Z,0.13
2023-04-07T04:36:42.012Z,0.07
2023-04-07T04:41:49.474Z,0.05
2023-04-07T04:46:54.993Z,0.13
2023-04-07T04:52:02.177Z,0.15
2023-04-07T04:57:09.879Z,0.19
2023-04-07T05:02:15.567Z,0.20
2023-04-07T05:07:23.196Z,0.21
2023-04-07T05:12:30.247Z,0.25
2023-04-07T05:17:37.574Z,0.35
2023-04-07T05:22:44.798Z,0.40
2023-04-07T05:27:52.096Z,0.40
2023-04-07T05:32:59.794Z,0.41
2023-04-07T05:38:07.290Z,0.42
2023-04-07T05:47:14.527Z,0.53
2023-04-07T05:52:21.904Z,0.55
2023-04-07T05:57:29.930Z,0.56
2023-04-07T06:02:38.058Z,0.56
2023-04-07T06:07:45.847Z,0.55
2023-04-07T06:12:53.286Z,0.54
2023-04-07T06:18:01.114Z,0.56
2023-04-07T06:23:08.742Z,0.60
2023-04-07T06:28:16.134Z,0.59
2023-04-07T06:33:26.080Z,0.58
2023-04-07T06:38:33.780Z,0.58
2023-04-07T06:43:41.297Z,0.61
2023-04-07T06:48:48.719Z,0.59
2023-04-07T06:53:55.947Z,0.62
2023-04-07T06:59:01.878Z,0.65
2023-04-07T07:04:09.385Z,0.69
2023-04-07T07:09:16.983Z,0.72
2023-04-07T07:14:24.244Z,0.73
2023-04-07T07:19:31.560Z,0.72
2023-04-07T07:24:40.351Z,0.76
2023-04-07T07:29:47.412Z,0.83
2023-04-07T07:34:54.666Z,0.87
2023-04-07T07:40:00.551Z,0.90
2023-04-07T07:45:09.216Z,0.93
2023-04-07T07:50:16.798Z,0.99
2023-04-07T07:55:22.471Z,1.03
2023-04-07T08:00:30.059Z,1.02
2023-04-07T08:05:37.457Z,1.03
2023-04-07T08:10:44.927Z,1.06
2023-04-07T08:15:52.144Z,1.11
2023-04-07T08:21:00.704Z,1.09
2023-04-07T08:26:08.719Z,1.08
2023-04-07T08:31:16.583Z,1.07
2023-04-07T08:36:26.453Z,1.08
2023-04-07T08:41:39.160Z,1.08
2023-04-07T08:46:49.533Z,1.11
2023-04-07T08:51:59.707Z,1.12
2023-04-07T08:57:07.674Z,1.11
2023-04-07T09:02:16.010Z,1.11
2023-04-07T09:07:23.354Z,1.08
2023-04-07T09:12:30.548Z,1.05
2023-04-07T09:17:38.595Z,1.05
2023-04-07T09:22:47.059Z,1.07
2023-04-07T09:28:02.144Z,1.10
2023-04-07T09:33:10.759Z,1.15
2023-04-07T09:38:17.983Z,1.19
2023-04-07T09:43:25.234Z,1.28
2023-04-07T09:48:32.555Z,1.32
2023-04-07T09:53:49.336Z,1.28
2023-04-07T09:58:57.093Z,1.26
2023-04-07T10:04:05.325Z,1.30
2023-04-07T10:09:15.751Z,1.34
2023-04-07T10:14:27.865Z,1.35
2023-04-07T10:19:36.581Z,1.40
2023-04-07T10:24:53.258Z,1.47
2023-04-07T10:30:02.004Z,1.51
2023-04-07T10:47:29.284Z,1.71
2023-04-07T10:52:34.141Z,1.71
2023-04-07T10:57:39.132Z,1.73
2023-04-07T11:02:43.693Z,1.77
2023-04-07T11:07:50.478Z,1.80
2023-04-07T11:13:03.538Z,1.77
2023-04-07T11:18:17.464Z,1.83
2023-04-07T11:23:23.417Z,1.90
2023-04-07T11:28:27.644Z,1.93
2023-04-07T11:33:34.410Z,1.97
2023-04-07T11:38:39.688Z,1.97
2023-04-07T11:43:44.432Z,2.02
2023-04-07T11:48:48.562Z,2.06
2023-04-07T11:53:57.305Z,2.08
2023-04-07T11:59:02.216Z,2.08
2023-04-07T12:04:07.020Z,2.12
2023-04-07T12:09:27.484Z,2.15
2023-04-07T12:14:31.498Z,2.14
2023-04-07T12:19:37.187Z,2.14
2023-04-07T12:24:42.586Z,2.18
2023-04-07T12:29:46.647Z,2.20
2023-04-07T12:34:51.189Z,2.20
2023-04-07T12:39:55.178Z,2.20
2023-04-07T12:44:59.330Z,2.24
2023-04-07T12:50:03.633Z,2.27
2023-04-07T12:55:09.033Z,2.25
2023-04-07T13:00:15.122Z,2.26
2023-04-07T13:05:19.273Z,2.24
2023-04-07T13:10:24.282Z,2.26
2023-04-07T13:15:28.927Z,2.31
2023-04-07T13:20:33.906Z,2.29
2023-04-07T13:25:38.933Z,2.29
2023-04-07T13:30:43.867Z,2.33
2023-04-07T13:35:47.819Z,2.34
2023-04-07T13:40:51.612Z,2.35
2023-04-07T13:45:56.594Z,2.39
2023-04-07T13:51:00.439Z,2.40
2023-04-07T13:56:08.010Z,2.38
2023-04-07T14:01:12.148Z,2.38
2023-04-07T14:06:16.665Z,2.46
2023-04-07T14:11:21.748Z,2.51
2023-04-07T14:16:26.959Z,2.54
2023-04-07T14:21:31.885Z,2.55
2023-04-07T14:26:36.213Z,2.56
2023-04-07T14:31:41.208Z,2.60
2023-04-07T14:36:54.851Z,2.65
2023-04-07T14:42:00.326Z,2.67
2023-04-07T14:47:04.487Z,2.65
2023-04-07T14:52:08.888Z,2.63
2023-04-07T14:57:13.182Z,2.59
2023-04-07T15:02:17.434Z,2.60
2023-04-07T15:07:21.576Z,2.61
2023-04-07T15:12:27.097Z,2.61
2023-04-07T15:17:43.039Z,2.62
2023-04-07T15:22:49.992Z,2.57
2023-04-07T15:27:54.342Z,2.55
2023-04-07T15:33:00.996Z,2.57
2023-04-07T15:38:05.113Z,2.59
2023-04-07T15:43:11.089Z,2.57
2023-04-07T15:48:15.605Z,2.55
2023-04-07T15:53:20.461Z,2.55
2023-04-07T15:58:24.322Z,2.57
2023-04-07T16:03:29.010Z,2.61
2023-04-07T16:08:33.213Z,2.64
2023-04-07T16:13:37.737Z,2.61
2023-04-07T16:18:42.478Z,2.63
2023-04-07T16:23:47.147Z,2.64
2023-04-07T16:28:52.179Z,2.69
2023-04-07T16:33:56.510Z,2.69
2023-04-07T16:39:00.569Z,2.70
2023-04-07T16:44:04.571Z,2.71
2023-04-07T16:49:10.203Z,2.69
2023-04-07T16:54:14.140Z,2.64
2023-04-07T16:59:19.097Z,2.66
2023-04-07T17:04:24.821Z,2.70
2023-04-07T17:09:30.101Z,2.74
2023-04-07T17:14:34.388Z,2.70
2023-04-07T17:19:39.130Z,2.70
2023-04-07T17:24:44.332Z,2.72
2023-04-07T17:29:48.270Z,2.74
2023-04-07T17:34:53.585Z,2.72
2023-04-07T17:39:58.014Z,2.72
2023-04-07T17:45:02.623Z,2.67
2023-04-07T17:50:09.149Z,2.66
2023-04-07T17:55:13.564Z,2.67
2023-04-07T18:00:19.146Z,2.64
2023-04-07T18:05:24.215Z,2.66
2023-04-07T18:10:29.315Z,2.66
2023-04-07T18:15:33.808Z,2.67
2023-04-07T18:20:38.327Z,2.68
2023-04-07T18:25:43.899Z,2.65
2023-04-07T18:30:47.980Z,2.63
2023-04-07T18:35:51.903Z,2.58
2023-04-07T18:40:56.545Z,2.55
2023-04-07T18:46:01.121Z,2.54
2023-04-07T18:51:07.253Z,2.58
2023-04-07T18:56:12.496Z,2.64
2023-04-07T19:01:16.793Z,2.69
2023-04-07T19:06:21.217Z,2.74
2023-04-07T19:11:26.791Z,2.75
2023-04-07T19:16:31.455Z,2.78
2023-04-07T19:21:37.320Z,2.82
2023-04-07T19:26:42.897Z,2.83
2023-04-07T19:31:48.022Z,2.81
2023-04-07T19:36:51.959Z,2.81
2023-04-07T19:41:57.198Z,2.82
2023-04-07T19:47:01.222Z,2.82
2023-04-07T19:52:05.662Z,2.80
2023-04-07T19:57:10.274Z,2.75
2023-04-07T20:02:14.978Z,2.70
2023-04-07T20:07:19.463Z,2.64
2023-04-07T20:12:23.770Z,2.61
2023-04-07T20:17:28.747Z,2.60
2023-04-07T20:22:34.190Z,2.58
2023-04-07T20:27:39.865Z,2.55
2023-04-07T20:32:45.560Z,2.52
2023-04-07T20:37:49.838Z,2.50
2023-04-07T20:42:54.292Z,2.51
2023-04-07T20:47:58.983Z,2.53
2023-04-07T20:53:03.625Z,2.53
2023-04-07T20:58:08.088Z,2.51
2023-04-07T21:03:12.569Z,2.49
2023-04-07T21:08:17.132Z,2.47
2023-04-07T21:13:22.000Z,2.48
2023-04-07T21:18:26.772Z,2.49
2023-04-07T21:23:31.544Z,2.49
2023-04-07T21:28:36.247Z,2.49
2023-04-07T21:33:40.570Z,2.47
2023-04-07T21:38:44.539Z,2.46
2023-04-07T21:43:48.632Z,2.49
2023-04-07T21:48:52.662Z,2.53
2023-04-07T21:53:57.084Z,2.52
2023-04-07T21:59:01.532Z,2.48
2023-04-07T22:04:07.239Z,2.44
2023-04-07T22:09:11.971Z,2.42
2023-04-07T22:14:16.267Z,2.41
2023-04-07T22:19:21.224Z,2.41
2023-04-07T22:24:25.630Z,2.37
2023-04-07T22:29:31.344Z,2.33
2023-04-07T22:34:36.061Z,2.28
2023-04-07T22:39:40.170Z,2.24
2023-04-07T22:44:44.204Z,2.23
2023-04-07T22:49:48.646Z,2.27
2023-04-07T22:54:52.638Z,2.26
2023-04-07T22:59:57.305Z,2.21
2023-04-07T23:05:02.988Z,2.18
2023-04-07T23:10:09.962Z,2.17
2023-04-07T23:15:14.684Z,2.13
2023-04-07T23:20:18.853Z,2.10
2023-04-07T23:25:23.312Z,2.05
2023-04-07T23:30:27.792Z,2.04
2023-04-07T23:35:32.041Z,2.06
2023-04-07T23:40:36.576Z,2.06
2023-04-07T23:45:40.436Z,2.03
2023-04-07T23:54:37.975Z,1.97
2023-04-07T23:59:45.366Z,1.91
